Time;durP1;ratioP1;P1;durP2;ratioP2;P2;SDS_P1;SDS_P2;PMS_P1;PMS_P2;Temp;Humidity;BMP_temperature;BMP_pressure;BME280_temperature;BME280_humidity;BME280_pressure;Samples;Min_cycle;Max_cycle;Signal;HPM_P1;HPM_P2
2021/04/01 12:59:55;;;;;;;84.43;53.55;;;25.10;57.90;;;;;;5099519;27;20363;-59
2021/04/01 13:02:23;;;;;;;85.22;54.50;;;24.50;60.00;;;;;;5101894;28;20507;-60
2021/04/01 13:05:08;;;;;;;86.00;56.17;;;24.50;60.10;;;;;;5105359;28;20040;-59
2021/04/01 13:07:53;;;;;;;85.70;56.58;;;24.90;59.50;;;;;;5088761;27;71066;-61
2021/04/01 13:10:40;;;;;;;79.30;54.00;;;25.10;60.00;;;;;;5021707;22;66835;-59
2021/04/01 13:36:01;;;;;;;98.38;58.95;;;23.50;60.50;;;;;;5107252;27;20392;-63
2021/04/01 13:40:46;;;;;;;86.85;56.95;;;23.70;61.50;;;;;;5078150;27;68376;-60
2021/04/01 13:43:14;;;;;;;81.78;54.88;;;24.40;58.90;;;;;;5069290;28;20044;-60
2021/04/01 13:45:40;;;;;;;77.40;47.55;;;23.90;59.30;;;;;;5076237;28;20047;-59
2021/04/01 13:48:16;;;;;;;75.28;45.80;;;23.30;60.70;;;;;;5073558;28;20123;-59
2021/04/01 13:50:53;;;;;;;65.97;38.13;;;23.10;60.50;;;;;;5075780;28;20449;-60
2021/04/01 13:53:35;;;;;;;58.17;35.40;;;23.20;60.00;;;;;;5070103;28;20036;-60
2021/04/01 13:56:08;;;;;;;53.03;33.03;;;23.40;59.00;;;;;;5072529;28;20056;-59
2021/04/01 14:09:19;;;;;;;36.65;18.63;;;23.30;59.20;;;;;;5072624;28;20039;-59
2021/04/01 14:11:45;;;;;;;34.03;16.10;;;23.20;58.70;;;;;;5067853;28;20310;-60
2021/04/01 14:14:11;;;;;;;27.17;13.50;;;23.30;58.10;;;;;;5069135;28;20401;-63
2021/04/01 14:16:38;;;;;;;21.88;11.73;;;23.50;57.10;;;;;;5067649;28;20032;-62
2021/04/01 14:19:05;;;;;;;24.10;11.82;;;23.20;56.70;;;;;;5066695;28;20017;-63
2021/04/01 14:21:32;;;;;;;24.45;12.15;;;23.20;56.10;;;;;;5066227;28;20020;-62
2021/04/01 14:23:59;;;;;;;23.48;10.35;;;22.70;55.70;;;;;;5066378;28;20505;-62
2021/04/01 14:28:50;;;;;;;18.33;9.90;;;22.70;56.70;;;;;;5066283;28;20043;-62
2021/04/01 14:31:17;;;;;;;23.95;10.13;;;22.60;56.60;;;;;;5066074;28;20055;-62
2021/04/01 14:33:45;;;;;;;21.10;9.27;;;22.70;57.10;;;;;;5065755;28;20024;-62
2021/04/01 14:36:13;;;;;;;15.98;9.10;;;22.80;57.30;;;;;;5066162;28;20036;-63
2021/04/01 14:38:40;;;;;;;17.38;8.85;;;22.80;57.40;;;;;;5067007;28;20057;-62
2021/04/01 14:46:03;;;;;;;12.25;7.65;;;22.60;58.40;;;;;;5067037;28;20052;-62
2021/04/01 14:48:29;;;;;;;14.85;7.30;;;22.30;57.90;;;;;;5067073;28;20493;-62
2021/04/01 14:50:55;;;;;;;18.17;7.55;;;21.60;59.40;;;;;;5058700;28;20056;-62
2021/04/01 14:56:05;;;;;;;19.33;7.82;;;20.80;61.30;;;;;;5053771;28;20021;-61
2021/04/01 14:58:33;;;;;;;18.13;7.72;;;20.30;62.90;;;;;;5053339;28;20019;-61
2021/04/01 15:01:00;;;;;;;14.73;7.05;;;20.00;64.50;;;;;;5052242;28;20044;-61
2021/04/01 15:03:26;;;;;;;14.85;7.00;;;19.40;66.00;;;;;;5052184;28;20060;-61
2021/04/01 15:05:53;;;;;;;18.25;7.72;;;19.40;67.30;;;;;;5052167;28;20106;-62
2021/04/01 15:08:21;;;;;;;20.35;7.20;;;19.50;67.50;;;;;;5053502;28;20024;-61
2021/04/01 15:10:47;;;;;;;15.52;7.32;;;19.50;68.20;;;;;;5053320;28;20059;-61
2021/04/01 15:13:14;;;;;;;15.52;7.40;;;19.20;66.00;;;;;;5053393;28;20028;-62
2021/04/01 15:15:41;;;;;;;15.00;6.47;;;19.10;66.90;;;;;;5053377;28;20083;-62
2021/04/01 15:18:08;;;;;;;19.60;7.00;;;19.20;67.10;;;;;;5053810;28;20029;-61
2021/04/01 15:20:34;;;;;;;14.65;6.75;;;19.20;67.30;;;;;;5053084;28;20025;-62
2021/04/01 15:22:59;;;;;;;14.60;6.20;;;19.20;67.30;;;;;;5052857;28;20017;-62
2021/04/01 15:25:25;;;;;;;15.63;6.25;;;19.10;67.60;;;;;;5052975;28;20033;-61
2021/04/01 15:27:51;;;;;;;17.30;5.63;;;19.00;67.80;;;;;;5053123;28;20021;-62
2021/04/01 15:30:17;;;;;;;19.13;6.18;;;19.10;68.40;;;;;;5052980;28;20393;-62
2021/04/01 15:32:43;;;;;;;20.38;5.60;;;19.20;67.70;;;;;;5052930;28;20291;-62
2021/04/01 15:35:10;;;;;;;14.23;5.35;;;18.90;67.40;;;;;;5051630;28;20025;-61
2021/04/01 15:37:37;;;;;;;11.50;4.85;;;18.80;68.20;;;;;;5052757;28;20422;-62
2021/04/01 15:40:05;;;;;;;13.02;5.15;;;18.90;68.90;;;;;;5052533;28;20091;-62
2021/04/01 15:42:31;;;;;;;12.15;4.72;;;18.90;68.30;;;;;;5052873;28;20025;-62
2021/04/01 15:44:59;;;;;;;12.00;4.57;;;18.90;68.30;;;;;;5052814;28;20028;-62
2021/04/01 15:47:25;;;;;;;15.57;4.53;;;18.70;68.60;;;;;;5051414;28;20021;-62
2021/04/01 15:49:51;;;;;;;10.90;4.13;;;18.60;69.00;;;;;;5051117;28;20106;-62
2021/04/01 15:52:17;;;;;;;9.65;3.65;;;18.40;69.50;;;;;;5052533;28;20044;-62
2021/04/01 15:54:43;;;;;;;12.43;4.00;;;18.30;70.50;;;;;;5052475;28;20057;-62
2021/04/01 15:57:09;;;;;;;11.38;3.60;;;18.30;70.40;;;;;;5052616;28;20025;-62
2021/04/01 15:59:35;;;;;;;11.25;3.92;;;18.20;70.70;;;;;;5051259;28;20056;-62
2021/04/01 16:02:00;;;;;;;14.73;4.97;;;18.10;70.40;;;;;;5050173;28;20025;-62
2021/04/01 16:04:26;;;;;;;12.50;4.53;;;18.00;71.20;;;;;;5052135;28;20017;-61
2021/04/01 16:06:52;;;;;;;13.00;4.32;;;17.90;72.00;;;;;;5052978;28;20036;-61
2021/04/01 16:09:18;;;;;;;14.30;4.15;;;17.80;72.40;;;;;;5052185;28;20025;-61
2021/04/01 16:11:43;;;;;;;10.63;4.20;;;17.80;73.00;;;;;;5052177;28;20032;-61
2021/04/01 16:14:09;;;;;;;12.75;3.83;;;17.60;73.10;;;;;;5051902;28;20445;-61
2021/04/01 16:16:34;;;;;;;12.32;3.65;;;17.60;72.80;;;;;;5052441;28;20078;-61
2021/04/01 16:19:00;;;;;;;9.18;3.92;;;17.50;73.60;;;;;;5050646;28;20305;-61
2021/04/01 16:21:26;;;;;;;11.82;3.95;;;17.60;74.00;;;;;;5051980;28;20167;-61
2021/04/01 16:23:52;;;;;;;12.02;4.10;;;17.40;73.50;;;;;;5051597;28;20025;-61
2021/04/01 16:26:17;;;;;;;16.95;4.05;;;17.40;73.50;;;;;;5052768;28;20096;-62
2021/04/01 16:28:43;;;;;;;13.52;4.28;;;17.50;73.50;;;;;;5051756;28;20032;-62
2021/04/01 16:31:09;;;;;;;13.95;4.40;;;17.60;73.40;;;;;;5051646;28;20049;-62
2021/04/01 16:33:37;;;;;;;10.70;4.05;;;17.80;73.20;;;;;;5051540;28;20103;-62
2021/04/01 16:36:05;;;;;;;12.30;4.45;;;17.90;72.60;;;;;;5051689;28;20032;-62
2021/04/01 16:38:34;;;;;;;12.45;3.97;;;17.70;72.80;;;;;;5051327;28;20035;-61
2021/04/01 16:40:59;;;;;;;10.80;3.63;;;17.70;72.60;;;;;;5051511;28;20021;-62
2021/04/01 16:43:27;;;;;;;10.98;3.67;;;17.60;72.40;;;;;;5051661;28;20521;-61
2021/04/01 16:45:53;;;;;;;13.48;3.90;;;17.30;73.10;;;;;;5051558;28;20029;-61
2021/04/01 16:48:19;;;;;;;8.43;3.28;;;17.00;74.10;;;;;;5051627;28;20091;-61
2021/04/01 16:50:45;;;;;;;10.20;4.05;;;16.90;74.70;;;;;;5050248;28;20029;-61
2021/04/01 16:53:12;;;;;;;7.07;3.20;;;16.70;75.20;;;;;;5051243;28;20029;-61
2021/04/01 16:55:43;;;;;;;10.43;3.33;;;16.60;75.50;;;;;;5050261;28;20032;-61
2021/04/01 16:58:09;;;;;;;10.43;3.55;;;16.50;75.70;;;;;;5051547;28;20025;-61
2021/04/01 17:00:35;;;;;;;10.15;3.28;;;16.30;75.80;;;;;;5050127;28;20031;-61
2021/04/01 17:03:04;;;;;;;8.27;2.97;;;16.40;76.10;;;;;;5051235;28;20029;-61
2021/04/01 17:05:29;;;;;;;9.52;3.40;;;16.30;76.40;;;;;;5051825;28;20056;-61
2021/04/01 17:07:58;;;;;;;13.73;3.63;;;16.20;77.00;;;;;;5051395;28;20529;-61
2021/04/01 17:10:24;;;;;;;12.38;3.88;;;16.10;77.50;;;;;;5051184;28;20048;-61
2021/04/01 17:12:49;;;;;;;14.98;3.72;;;16.10;77.30;;;;;;5051623;28;20533;-61
2021/04/01 17:15:15;;;;;;;10.18;3.55;;;15.90;77.20;;;;;;5049919;28;20033;-61
2021/04/01 17:17:42;;;;;;;13.45;3.50;;;15.90;76.80;;;;;;5051359;28;20478;-61
2021/04/01 17:20:11;;;;;;;9.65;3.22;;;15.80;76.90;;;;;;5051001;28;20021;-61
2021/04/01 17:22:37;;;;;;;7.28;3.20;;;15.70;76.70;;;;;;5050773;28;20021;-61
2021/04/01 17:25:04;;;;;;;13.70;3.67;;;15.60;76.70;;;;;;5051208;28;20363;-61
2021/04/01 17:27:30;;;;;;;10.95;3.35;;;15.50;76.40;;;;;;5051519;28;20184;-61
2021/04/01 17:29:55;;;;;;;10.27;3.13;;;15.40;76.30;;;;;;5049488;28;20032;-59
2021/04/01 17:32:21;;;;;;;17.10;3.33;;;15.20;75.60;;;;;;5051047;28;20059;-60
2021/04/01 17:34:46;;;;;;;8.45;2.92;;;15.10;75.80;;;;;;5051072;28;20029;-59
2021/04/01 17:37:12;;;;;;;9.13;2.75;;;15.00;74.90;;;;;;5051109;28;20032;-59
2021/04/01 17:39:37;;;;;;;10.40;3.15;;;14.90;74.80;;;;;;5050896;28;20037;-59
2021/04/01 17:42:05;;;;;;;10.20;3.20;;;14.80;74.50;;;;;;5051149;28;20462;-59
2021/04/01 17:44:32;;;;;;;9.73;3.15;;;14.70;74.10;;;;;;5050675;28;20078;-59
2021/04/01 17:46:58;;;;;;;18.45;4.05;;;14.50;74.60;;;;;;5050842;28;20021;-59
2021/04/01 17:49:24;;;;;;;15.88;4.03;;;14.40;76.30;;;;;;5049667;28;20048;-60
2021/04/01 17:51:50;;;;;;;17.10;4.40;;;14.30;78.70;;;;;;5050309;28;20025;-60
2021/04/01 17:54:16;;;;;;;20.67;5.97;;;14.20;80.50;;;;;;5050645;28;20021;-60
2021/04/01 17:56:43;;;;;;;22.38;5.03;;;14.10;81.80;;;;;;5050900;28;20021;-60
2021/04/01 17:59:10;;;;;;;24.90;5.53;;;14.00;83.00;;;;;;5050702;28;20544;-60
2021/04/01 18:01:42;;;;;;;20.65;5.88;;;13.90;84.10;;;;;;5050921;28;20021;-60
2021/04/01 18:25:32;;;;;;;25.35;6.10;;;12.80;91.10;;;;;;5050920;28;20112;-60
2021/04/01 18:28:05;;;;;;;25.38;6.32;;;12.70;91.40;;;;;;5054623;28;20101;-60
2021/04/01 18:30:33;;;;;;;32.28;6.28;;;12.70;91.50;;;;;;5054315;28;20028;-60
2021/04/01 18:35:39;;;;;;;27.15;6.40;;;12.50;91.50;;;;;;5054435;28;20489;-60
2021/04/01 18:38:12;;;;;;;30.60;6.32;;;12.40;91.60;;;;;;5054207;28;20440;-61
2021/04/01 18:43:23;;;;;;;22.58;6.45;;;12.20;92.00;;;;;;5055686;28;20516;-61
2021/04/01 18:51:07;;;;;;;35.03;7.70;;;12.10;92.30;;;;;;5055738;28;20032;-61
2021/04/01 18:53:41;;;;;;;38.45;7.80;;;12.10;92.50;;;;;;5054929;28;20029;-61
2021/04/01 18:56:17;;;;;;;36.60;7.20;;;12.10;92.60;;;;;;5052732;28;20116;-61
2021/04/01 19:01:43;;;;;;;33.17;6.90;;;11.90;93.00;;;;;;5054169;28;20482;-60
2021/04/01 19:04:05;;;;;;;28.98;7.57;;;11.80;93.30;;;;;;5054159;28;20385;-61
2021/04/01 19:06:33;;;;;;;28.30;6.88;;;11.70;93.50;;;;;;5053659;28;20017;-61
2021/04/01 19:09:04;;;;;;;33.72;6.88;;;11.60;93.60;;;;;;5053919;28;20393;-61
2021/04/01 19:19:39;;;;;;;29.35;7.28;;;11.40;94.10;;;;;;5053560;28;20029;-61
2021/04/01 19:22:54;;;;;;;29.48;6.35;;;11.20;94.60;;;;;;5053026;28;20031;-61
2021/04/01 19:25:19;;;;;;;28.15;7.07;;;11.10;95.10;;;;;;5052179;28;20112;-59
2021/04/01 19:27:45;;;;;;;26.92;6.03;;;11.00;94.90;;;;;;5053830;28;20127;-60
2021/04/01 19:30:14;;;;;;;29.73;7.00;;;10.90;95.20;;;;;;5053390;28;20028;-61
2021/04/01 19:32:41;;;;;;;30.75;7.20;;;10.90;95.30;;;;;;5053109;28;20021;-61
2021/04/01 19:35:07;;;;;;;36.20;7.60;;;10.80;95.50;;;;;;5053697;28;20374;-61
2021/04/01 19:37:33;;;;;;;27.25;6.88;;;10.80;95.70;;;;;;5052068;28;20385;-60
2021/04/01 19:40:00;;;;;;;32.58;6.80;;;10.70;95.90;;;;;;5052948;28;20124;-60
2021/04/01 19:42:28;;;;;;;31.77;8.25;;;10.60;96.10;;;;;;5054044;28;20033;-60
2021/04/01 19:44:58;;;;;;;32.67;6.80;;;10.60;96.30;;;;;;5053085;28;20041;-60
2021/04/01 19:47:26;;;;;;;29.63;7.13;;;10.50;96.40;;;;;;5054078;28;20013;-60
2021/04/01 19:49:53;;;;;;;29.60;7.38;;;10.50;96.60;;;;;;5052840;28;20052;-61
2021/04/01 19:52:20;;;;;;;30.98;6.57;;;10.40;96.80;;;;;;5053781;28;20035;-61
2021/04/01 19:54:46;;;;;;;32.42;7.15;;;10.40;97.00;;;;;;5053025;28;20039;-61
2021/04/01 19:57:12;;;;;;;29.42;7.50;;;10.30;97.20;;;;;;5051829;28;20080;-61
2021/04/01 19:59:40;;;;;;;35.08;8.38;;;10.30;97.30;;;;;;5053436;28;20491;-61
2021/04/01 20:02:07;;;;;;;34.50;7.68;;;10.30;97.50;;;;;;5054156;28;20028;-60
2021/04/01 20:04:32;;;;;;;32.72;7.45;;;10.20;98.00;;;;;;5052170;28;20037;-60
2021/04/01 20:06:58;;;;;;;35.92;7.53;;;10.10;97.90;;;;;;5053390;28;20083;-60
2021/04/01 20:09:24;;;;;;;32.45;8.32;;;10.00;98.10;;;;;;5053187;28;20028;-60
2021/04/01 20:11:51;;;;;;;28.85;8.10;;;10.00;98.40;;;;;;5052667;28;20111;-60
2021/04/01 20:14:19;;;;;;;39.72;8.25;;;9.90;98.60;;;;;;5053029;28;20409;-61
2021/04/01 20:16:51;;;;;;;25.35;7.10;;;9.80;98.80;;;;;;5051987;28;20115;-61
2021/04/01 20:19:19;;;;;;;30.13;8.20;;;9.90;98.90;;;;;;5052505;28;20043;-60
2021/04/01 20:21:45;;;;;;;38.38;8.15;;;9.80;99.20;;;;;;5052513;28;20473;-61
2021/04/01 20:24:12;;;;;;;36.45;7.65;;;9.80;99.30;;;;;;5052902;28;20051;-60
2021/04/01 20:26:39;;;;;;;25.23;7.03;;;9.70;99.40;;;;;;5052707;28;20075;-60
2021/04/01 20:29:06;;;;;;;31.00;7.03;;;9.60;99.60;;;;;;5052979;28;20028;-60
2021/04/01 20:31:31;;;;;;;28.27;7.63;;;9.60;99.70;;;;;;5053373;28;20028;-60
2021/04/01 20:33:57;;;;;;;36.20;7.43;;;9.60;99.90;;;;;;5052417;28;20041;-60
2021/04/01 20:36:22;;;;;;;31.23;7.75;;;9.50;99.90;;;;;;5052191;28;20063;-60
2021/04/01 20:38:48;;;;;;;29.25;7.57;;;9.50;99.90;;;;;;5050738;28;20072;-60
2021/04/01 20:41:15;;;;;;;26.33;6.60;;;9.50;99.90;;;;;;5052088;28;20028;-60
2021/04/01 20:43:41;;;;;;;34.30;8.50;;;9.50;99.90;;;;;;5051913;28;20021;-59
2021/04/01 20:46:07;;;;;;;31.30;6.65;;;9.50;99.90;;;;;;5052122;28;20500;-59
2021/04/01 20:48:34;;;;;;;31.17;7.60;;;9.40;99.90;;;;;;5051523;28;20021;-59
2021/04/01 20:51:00;;;;;;;27.33;7.35;;;9.30;99.90;;;;;;5051915;28;20107;-60
2021/04/01 20:53:28;;;;;;;24.85;7.55;;;9.30;99.90;;;;;;5050268;28;20025;-60
2021/04/01 20:55:55;;;;;;;37.60;8.80;;;9.30;99.90;;;;;;5052120;28;20021;-60
2021/04/01 20:58:25;;;;;;;35.33;8.02;;;9.30;99.90;;;;;;5051953;28;20017;-60
2021/04/01 21:00:51;;;;;;;30.77;7.53;;;9.20;99.90;;;;;;5050391;28;20028;-60
2021/04/01 21:03:19;;;;;;;31.98;8.60;;;9.20;99.90;;;;;;5052093;28;20397;-60
2021/04/01 21:05:46;;;;;;;35.55;9.38;;;9.20;99.90;;;;;;5050423;28;20116;-60
2021/04/01 21:08:23;;;;;;;30.55;7.90;;;9.10;99.90;;;;;;5052116;28;20031;-61
2021/04/01 21:10:51;;;;;;;28.65;8.02;;;9.10;99.90;;;;;;5051707;28;20137;-61
2021/04/01 21:13:17;;;;;;;27.08;8.20;;;9.10;99.90;;;;;;5050003;28;20025;-61
2021/04/01 21:15:47;;;;;;;38.22;8.88;;;9.10;99.90;;;;;;5052108;28;20143;-61
2021/04/01 21:18:16;;;;;;;34.60;7.65;;;9.10;99.90;;;;;;5051618;28;20032;-61
2021/04/01 21:20:43;;;;;;;26.13;8.25;;;9.10;99.90;;;;;;5051397;28;20112;-61
2021/04/01 21:23:10;;;;;;;28.40;7.72;;;9.00;99.90;;;;;;5050639;28;20023;-61
2021/04/01 21:25:40;;;;;;;29.05;8.25;;;9.00;99.90;;;;;;5051013;28;20406;-61
2021/04/01 21:28:12;;;;;;;32.88;8.50;;;9.00;99.90;;;;;;5051249;28;20070;-61
2021/04/01 21:30:45;;;;;;;27.10;8.18;;;8.90;99.90;;;;;;5050998;28;20033;-61
2021/04/01 21:33:13;;;;;;;29.42;8.57;;;8.90;99.90;;;;;;5050812;28;20029;-61
2021/04/01 21:35:39;;;;;;;32.25;9.50;;;8.80;99.90;;;;;;5051004;28;20112;-61
2021/04/01 21:38:06;;;;;;;38.25;8.80;;;8.80;99.90;;;;;;5051068;28;20153;-61
2021/04/01 21:40:35;;;;;;;33.53;9.70;;;8.80;99.90;;;;;;5050480;28;20061;-61
2021/04/01 21:43:01;;;;;;;25.52;8.73;;;8.80;99.90;;;;;;5050950;28;20025;-61
2021/04/01 21:45:29;;;;;;;38.85;9.32;;;8.80;99.90;;;;;;5050876;28;20103;-61
2021/04/01 21:47:55;;;;;;;34.88;9.27;;;8.70;99.90;;;;;;5050942;28;20096;-61
2021/04/01 21:50:24;;;;;;;29.17;8.82;;;8.80;99.90;;;;;;5050780;28;20094;-61
2021/04/01 21:52:50;;;;;;;29.40;9.50;;;8.70;99.90;;;;;;5051248;28;20061;-61
2021/04/01 21:55:16;;;;;;;32.50;9.00;;;8.70;99.90;;;;;;5050658;28;20064;-61
2021/04/01 21:57:43;;;;;;;26.38;8.75;;;8.60;99.90;;;;;;5049894;28;20059;-60
2021/04/01 22:00:15;;;;;;;38.28;9.57;;;8.60;99.90;;;;;;5051388;28;20497;-60
2021/04/01 22:02:40;;;;;;;27.88;9.40;;;8.60;99.90;;;;;;5055217;28;20013;-60
2021/04/01 22:05:07;;;;;;;32.03;9.65;;;8.60;99.90;;;;;;5053693;28;20032;-60
2021/04/01 22:07:38;;;;;;;29.35;9.63;;;8.50;99.90;;;;;;5055093;28;20036;-61
2021/04/01 22:10:16;;;;;;;27.13;9.10;;;8.50;99.90;;;;;;5054960;28;20166;-61
2021/04/01 22:12:42;;;;;;;30.83;9.43;;;8.50;99.90;;;;;;5054972;28;20108;-61
2021/04/01 22:15:13;;;;;;;29.70;9.75;;;8.40;99.90;;;;;;5054844;28;20021;-61
2021/04/01 22:17:39;;;;;;;33.60;10.32;;;8.40;99.90;;;;;;5055075;28;20025;-61
2021/04/01 22:20:09;;;;;;;26.35;8.60;;;8.40;99.90;;;;;;5053208;28;20021;-61
2021/04/01 22:22:35;;;;;;;30.48;8.98;;;8.40;99.90;;;;;;5053531;28;20485;-61
2021/04/01 22:25:01;;;;;;;25.02;8.80;;;8.40;99.90;;;;;;5054576;28;20021;-61
2021/04/01 22:27:26;;;;;;;25.52;8.73;;;8.40;99.90;;;;;;5054752;28;20104;-61
2021/04/01 22:29:52;;;;;;;26.35;8.68;;;8.30;99.90;;;;;;5054506;28;20033;-61
2021/04/01 22:32:21;;;;;;;23.17;8.57;;;8.30;99.90;;;;;;5054343;28;20132;-61
2021/04/01 22:34:47;;;;;;;21.77;8.02;;;8.30;99.90;;;;;;5053193;28;20029;-61
2021/04/01 22:37:16;;;;;;;20.80;7.90;;;8.30;99.90;;;;;;5054369;28;20040;-61
2021/04/01 22:39:43;;;;;;;17.33;7.05;;;8.30;99.90;;;;;;5052582;28;20047;-61
2021/04/01 22:42:10;;;;;;;20.52;7.88;;;8.30;99.90;;;;;;5054283;28;20120;-61
2021/04/01 22:44:36;;;;;;;18.35;7.22;;;8.20;99.90;;;;;;5052593;28;20449;-61
2021/04/01 22:47:05;;;;;;;16.40;7.20;;;8.20;99.90;;;;;;5052945;28;20056;-61
2021/04/01 22:49:31;;;;;;;17.58;7.35;;;8.30;99.90;;;;;;5052998;28;20025;-60
2021/04/01 22:51:56;;;;;;;15.75;7.32;;;8.30;99.90;;;;;;5052522;28;20394;-60
2021/04/01 22:54:22;;;;;;;15.02;7.45;;;8.30;99.90;;;;;;5052465;28;20036;-61
2021/04/01 22:56:47;;;;;;;15.23;7.45;;;8.30;99.90;;;;;;5054335;28;20029;-61
2021/04/01 22:59:13;;;;;;;15.02;7.13;;;8.20;99.90;;;;;;5052385;28;20040;-61
2021/04/01 23:01:39;;;;;;;17.50;7.28;;;8.20;99.90;;;;;;5052638;28;20025;-60
2021/04/01 23:07:26;;;;;;;20.35;8.30;;;8.20;99.90;;;;;;5054221;28;20036;-60
2021/04/01 23:09:52;;;;;;;15.85;7.78;;;8.10;99.90;;;;;;5054065;28;20025;-60
2021/04/01 23:12:17;;;;;;;17.40;7.57;;;8.10;99.90;;;;;;5051987;28;20119;-60
2021/04/01 23:18:05;;;;;;;16.35;7.63;;;8.10;99.90;;;;;;5052992;28;20024;-60
2021/04/01 23:20:31;;;;;;;13.40;7.47;;;8.10;99.90;;;;;;5053759;28;20025;-60
2021/04/01 23:22:57;;;;;;;17.30;8.52;;;8.10;99.90;;;;;;5053238;28;20017;-60
2021/04/01 23:25:28;;;;;;;17.00;7.63;;;8.10;99.90;;;;;;5052048;28;20031;-60
2021/04/01 23:27:56;;;;;;;21.98;7.93;;;8.00;99.90;;;;;;5053494;28;20044;-60
2021/04/01 23:30:25;;;;;;;16.27;8.32;;;7.90;99.90;;;;;;5053346;28;20033;-60
2021/04/01 23:32:52;;;;;;;18.67;7.75;;;7.90;99.90;;;;;;5053490;28;20029;-60
2021/04/01 23:35:18;;;;;;;15.68;8.07;;;7.90;99.90;;;;;;5053252;28;20481;-60
2021/04/01 23:37:44;;;;;;;18.85;7.90;;;7.80;99.90;;;;;;5053480;28;20393;-60
2021/04/01 23:40:12;;;;;;;15.52;8.15;;;7.80;99.90;;;;;;5053206;28;20049;-60
2021/04/01 23:42:39;;;;;;;19.10;8.23;;;7.80;99.90;;;;;;5053271;28;20013;-60
2021/04/01 23:45:07;;;;;;;14.63;7.88;;;7.70;99.90;;;;;;5052885;28;20017;-60
2021/04/01 23:47:33;;;;;;;17.10;8.00;;;7.70;99.90;;;;;;5052992;28;20071;-60
2021/04/01 23:49:59;;;;;;;14.77;8.15;;;7.70;99.90;;;;;;5053056;28;20025;-61
2021/04/01 23:52:25;;;;;;;13.10;7.97;;;7.70;99.90;;;;;;5052508;28;20025;-60
2021/04/01 23:54:50;;;;;;;20.50;7.93;;;7.60;99.90;;;;;;5052720;28;20025;-60
2021/04/01 23:57:16;;;;;;;17.67;8.27;;;7.70;99.90;;;;;;5052749;28;20401;-60
2021/04/01 23:59:41;;;;;;;14.68;7.88;;;7.70;99.90;;;;;;5052671;28;20032;-60
